sensor_id;sensor_type;location;lat;lon;timestamp;P1;durP1;ratioP1;P2;durP2;ratioP2
41456;SDS011;27197;51.752;5.220;2023-02-01T00:01:54;9.05;;;2.77;;
41456;SDS011;27197;51.752;5.220;2023-02-01T00:04:26;6.25;;;2.00;;
41456;SDS011;27197;51.752;5.220;2023-02-01T00:06:56;7.85;;;1.75;;
41456;SDS011;27197;51.752;5.220;2023-02-01T00:11:54;7.55;;;1.98;;
41456;SDS011;27197;51.752;5.220;2023-02-01T00:14:23;6.00;;;2.00;;
41456;SDS011;27197;51.752;5.220;2023-02-01T00:16:56;5.05;;;1.70;;
41456;SDS011;27197;51.752;5.220;2023-02-01T00:19:25;5.08;;;2.20;;
41456;SDS011;27197;51.752;5.220;2023-02-01T00:21:57;6.05;;;1.67;;
41456;SDS011;27197;51.752;5.220;2023-02-01T00:24:27;7.17;;;2.00;;
41456;SDS011;27197;51.752;5.220;2023-02-01T00:26:56;7.37;;;2.40;;
41456;SDS011;27197;51.752;5.220;2023-02-01T00:29:28;6.62;;;2.20;;
41456;SDS011;27197;51.752;5.220;2023-02-01T00:31:58;6.12;;;1.57;;
41456;SDS011;27197;51.752;5.220;2023-02-01T00:34:30;8.00;;;2.30;;
41456;SDS011;27197;51.752;5.220;2023-02-01T00:36:59;7.45;;;2.15;;
41456;SDS011;27197;51.752;5.220;2023-02-01T00:39:31;9.13;;;2.62;;
41456;SDS011;27197;51.752;5.220;2023-02-01T00:42:01;5.50;;;2.10;;
41456;SDS011;27197;51.752;5.220;2023-02-01T00:44:32;4.60;;;1.80;;
41456;SDS011;27197;51.752;5.220;2023-02-01T00:47:01;9.73;;;2.20;;
41456;SDS011;27197;51.752;5.220;2023-02-01T00:49:33;6.28;;;1.82;;
41456;SDS011;27197;51.752;5.220;2023-02-01T00:52:05;7.45;;;1.90;;
41456;SDS011;27197;51.752;5.220;2023-02-01T00:54:38;8.68;;;1.98;;
41456;SDS011;27197;51.752;5.220;2023-02-01T00:57:08;8.48;;;2.27;;
41456;SDS011;27197;51.752;5.220;2023-02-01T00:59:38;6.50;;;1.90;;
41456;SDS011;27197;51.752;5.220;2023-02-01T01:02:06;8.65;;;2.17;;
41456;SDS011;27197;51.752;5.220;2023-02-01T01:04:38;7.92;;;1.92;;
41456;SDS011;27197;51.752;5.220;2023-02-01T01:07:07;7.45;;;2.22;;
41456;SDS011;27197;51.752;5.220;2023-02-01T01:09:39;5.72;;;1.62;;
41456;SDS011;27197;51.752;5.220;2023-02-01T01:12:08;8.03;;;2.35;;
41456;SDS011;27197;51.752;5.220;2023-02-01T01:14:37;6.85;;;1.77;;
41456;SDS011;27197;51.752;5.220;2023-02-01T01:17:06;9.95;;;2.02;;
41456;SDS011;27197;51.752;5.220;2023-02-01T01:19:37;8.93;;;2.10;;
41456;SDS011;27197;51.752;5.220;2023-02-01T01:22:07;5.55;;;1.72;;
41456;SDS011;27197;51.752;5.220;2023-02-01T01:24:39;6.45;;;1.90;;
41456;SDS011;27197;51.752;5.220;2023-02-01T01:27:08;9.13;;;2.62;;
41456;SDS011;27197;51.752;5.220;2023-02-01T01:29:41;9.68;;;2.42;;
41456;SDS011;27197;51.752;5.220;2023-02-01T01:32:10;5.78;;;1.90;;
41456;SDS011;27197;51.752;5.220;2023-02-01T01:34:42;9.43;;;2.90;;
41456;SDS011;27197;51.752;5.220;2023-02-01T01:37:12;7.10;;;1.95;;
41456;SDS011;27197;51.752;5.220;2023-02-01T01:39:44;11.38;;;1.98;;
41456;SDS011;27197;51.752;5.220;2023-02-01T01:42:14;7.85;;;2.10;;
41456;SDS011;27197;51.752;5.220;2023-02-01T01:47:16;6.85;;;1.87;;
41456;SDS011;27197;51.752;5.220;2023-02-01T01:49:47;6.58;;;2.20;;
41456;SDS011;27197;51.752;5.220;2023-02-01T01:52:17;8.50;;;2.65;;
41456;SDS011;27197;51.752;5.220;2023-02-01T01:54:51;5.85;;;1.20;;
41456;SDS011;27197;51.752;5.220;2023-02-01T01:57:29;4.92;;;1.55;;
41456;SDS011;27197;51.752;5.220;2023-02-01T01:59:55;7.35;;;2.15;;
41456;SDS011;27197;51.752;5.220;2023-02-01T02:02:27;6.70;;;1.95;;
41456;SDS011;27197;51.752;5.220;2023-02-01T02:04:57;5.65;;;1.55;;
41456;SDS011;27197;51.752;5.220;2023-02-01T02:07:34;12.13;;;2.72;;
41456;SDS011;27197;51.752;5.220;2023-02-01T02:10:03;6.83;;;2.33;;
41456;SDS011;27197;51.752;5.220;2023-02-01T02:12:35;6.28;;;1.87;;
41456;SDS011;27197;51.752;5.220;2023-02-01T02:15:05;9.05;;;2.65;;
41456;SDS011;27197;51.752;5.220;2023-02-01T02:17:49;9.83;;;2.33;;
41456;SDS011;27197;51.752;5.220;2023-02-01T02:20:22;10.60;;;2.37;;
41456;SDS011;27197;51.752;5.220;2023-02-01T02:28:26;11.88;;;2.35;;
41456;SDS011;27197;51.752;5.220;2023-02-01T02:33:48;5.95;;;1.85;;
41456;SDS011;27197;51.752;5.220;2023-02-01T02:39:08;4.78;;;1.50;;
41456;SDS011;27197;51.752;5.220;2023-02-01T02:44:49;6.80;;;2.45;;
41456;SDS011;27197;51.752;5.220;2023-02-01T02:47:36;8.20;;;2.00;;
41456;SDS011;27197;51.752;5.220;2023-02-01T02:50:05;7.85;;;1.92;;
41456;SDS011;27197;51.752;5.220;2023-02-01T02:52:55;12.98;;;2.05;;
41456;SDS011;27197;51.752;5.220;2023-02-01T02:55:38;10.15;;;3.10;;
41456;SDS011;27197;51.752;5.220;2023-02-01T02:58:09;8.68;;;2.65;;
41456;SDS011;27197;51.752;5.220;2023-02-01T03:00:54;10.70;;;2.40;;
41456;SDS011;27197;51.752;5.220;2023-02-01T03:03:39;10.20;;;2.25;;
41456;SDS011;27197;51.752;5.220;2023-02-01T03:06:27;5.53;;;1.98;;
41456;SDS011;27197;51.752;5.220;2023-02-01T03:09:02;11.03;;;2.08;;
41456;SDS011;27197;51.752;5.220;2023-02-01T03:11:30;10.90;;;2.75;;
41456;SDS011;27197;51.752;5.220;2023-02-01T03:14:00;9.60;;;2.10;;
41456;SDS011;27197;51.752;5.220;2023-02-01T03:16:40;6.65;;;1.90;;
41456;SDS011;27197;51.752;5.220;2023-02-01T03:19:16;6.72;;;2.33;;
41456;SDS011;27197;51.752;5.220;2023-02-01T03:21:53;9.13;;;2.60;;
41456;SDS011;27197;51.752;5.220;2023-02-01T03:24:23;8.10;;;2.17;;
41456;SDS011;27197;51.752;5.220;2023-02-01T03:26:54;5.92;;;2.00;;
41456;SDS011;27197;51.752;5.220;2023-02-01T03:29:27;7.05;;;2.08;;
41456;SDS011;27197;51.752;5.220;2023-02-01T03:31:56;5.45;;;1.72;;
41456;SDS011;27197;51.752;5.220;2023-02-01T03:34:28;8.68;;;2.70;;
41456;SDS011;27197;51.752;5.220;2023-02-01T03:37:02;8.38;;;2.62;;
41456;SDS011;27197;51.752;5.220;2023-02-01T03:39:42;12.65;;;2.92;;
41456;SDS011;27197;51.752;5.220;2023-02-01T03:42:10;4.70;;;1.67;;
41456;SDS011;27197;51.752;5.220;2023-02-01T03:44:42;10.38;;;2.55;;
41456;SDS011;27197;51.752;5.220;2023-02-01T03:47:17;8.33;;;2.62;;
41456;SDS011;27197;51.752;5.220;2023-02-01T03:49:51;7.83;;;1.92;;
41456;SDS011;27197;51.752;5.220;2023-02-01T03:52:24;9.33;;;2.45;;
41456;SDS011;27197;51.752;5.220;2023-02-01T03:54:56;9.93;;;2.47;;
41456;SDS011;27197;51.752;5.220;2023-02-01T03:57:27;8.88;;;2.42;;
41456;SDS011;27197;51.752;5.220;2023-02-01T04:00:20;7.12;;;2.37;;
41456;SDS011;27197;51.752;5.220;2023-02-01T04:02:31;7.65;;;2.17;;
41456;SDS011;27197;51.752;5.220;2023-02-01T04:05:00;9.08;;;2.22;;
41456;SDS011;27197;51.752;5.220;2023-02-01T04:07:33;5.90;;;1.77;;
41456;SDS011;27197;51.752;5.220;2023-02-01T04:10:03;9.98;;;2.65;;
41456;SDS011;27197;51.752;5.220;2023-02-01T04:12:36;9.25;;;2.60;;
41456;SDS011;27197;51.752;5.220;2023-02-01T04:15:06;8.25;;;2.40;;
41456;SDS011;27197;51.752;5.220;2023-02-01T04:17:38;10.55;;;2.30;;
41456;SDS011;27197;51.752;5.220;2023-02-01T04:20:08;6.42;;;1.85;;
41456;SDS011;27197;51.752;5.220;2023-02-01T04:22:40;6.75;;;2.08;;
41456;SDS011;27197;51.752;5.220;2023-02-01T04:25:09;8.58;;;2.45;;
41456;SDS011;27197;51.752;5.220;2023-02-01T04:30:05;8.03;;;2.37;;
41456;SDS011;27197;51.752;5.220;2023-02-01T04:32:37;7.27;;;2.20;;
41456;SDS011;27197;51.752;5.220;2023-02-01T04:35:08;8.18;;;1.95;;
41456;SDS011;27197;51.752;5.220;2023-02-01T04:37:37;7.72;;;1.67;;
41456;SDS011;27197;51.752;5.220;2023-02-01T04:40:05;7.87;;;2.25;;
41456;SDS011;27197;51.752;5.220;2023-02-01T04:42:34;8.63;;;2.20;;
41456;SDS011;27197;51.752;5.220;2023-02-01T04:45:03;6.72;;;2.45;;
41456;SDS011;27197;51.752;5.220;2023-02-01T04:47:36;7.25;;;2.30;;
41456;SDS011;27197;51.752;5.220;2023-02-01T04:50:07;11.88;;;3.08;;
41456;SDS011;27197;51.752;5.220;2023-02-01T04:52:36;7.53;;;2.05;;
41456;SDS011;27197;51.752;5.220;2023-02-01T04:55:04;9.25;;;2.37;;
41456;SDS011;27197;51.752;5.220;2023-02-01T04:57:34;5.65;;;1.95;;
41456;SDS011;27197;51.752;5.220;2023-02-01T05:00:04;11.55;;;2.50;;
41456;SDS011;27197;51.752;5.220;2023-02-01T05:02:34;8.05;;;2.22;;
41456;SDS011;27197;51.752;5.220;2023-02-01T05:05:04;8.83;;;2.22;;
41456;SDS011;27197;51.752;5.220;2023-02-01T05:07:33;9.85;;;2.05;;
41456;SDS011;27197;51.752;5.220;2023-02-01T05:10:05;5.90;;;1.80;;
41456;SDS011;27197;51.752;5.220;2023-02-01T05:12:34;9.60;;;2.10;;
41456;SDS011;27197;51.752;5.220;2023-02-01T05:15:20;9.68;;;2.40;;
41456;SDS011;27197;51.752;5.220;2023-02-01T05:17:48;7.33;;;2.30;;
41456;SDS011;27197;51.752;5.220;2023-02-01T05:20:20;5.45;;;1.77;;
41456;SDS011;27197;51.752;5.220;2023-02-01T05:22:50;8.63;;;2.10;;
41456;SDS011;27197;51.752;5.220;2023-02-01T05:25:22;6.28;;;1.75;;
41456;SDS011;27197;51.752;5.220;2023-02-01T05:27:52;7.83;;;2.30;;
41456;SDS011;27197;51.752;5.220;2023-02-01T05:30:21;8.83;;;2.85;;
41456;SDS011;27197;51.752;5.220;2023-02-01T05:32:53;10.98;;;2.37;;
41456;SDS011;27197;51.752;5.220;2023-02-01T05:35:21;5.33;;;1.98;;
41456;SDS011;27197;51.752;5.220;2023-02-01T05:37:49;13.25;;;2.77;;
41456;SDS011;27197;51.752;5.220;2023-02-01T05:40:22;7.78;;;1.98;;
41456;SDS011;27197;51.752;5.220;2023-02-01T05:42:52;10.60;;;2.65;;
41456;SDS011;27197;51.752;5.220;2023-02-01T05:45:22;8.03;;;2.47;;
41456;SDS011;27197;51.752;5.220;2023-02-01T05:47:51;5.17;;;1.70;;
41456;SDS011;27197;51.752;5.220;2023-02-01T05:50:23;8.75;;;2.10;;
41456;SDS011;27197;51.752;5.220;2023-02-01T05:52:52;7.45;;;1.82;;
41456;SDS011;27197;51.752;5.220;2023-02-01T05:55:23;7.58;;;2.05;;
41456;SDS011;27197;51.752;5.220;2023-02-01T05:57:55;10.10;;;2.60;;
41456;SDS011;27197;51.752;5.220;2023-02-01T06:00:23;8.90;;;2.30;;
41456;SDS011;27197;51.752;5.220;2023-02-01T06:02:52;7.72;;;1.87;;
41456;SDS011;27197;51.752;5.220;2023-02-01T06:05:22;7.22;;;2.08;;
41456;SDS011;27197;51.752;5.220;2023-02-01T06:07:54;6.35;;;2.50;;
41456;SDS011;27197;51.752;5.220;2023-02-01T06:10:22;9.68;;;2.20;;
41456;SDS011;27197;51.752;5.220;2023-02-01T06:12:51;7.75;;;2.65;;
41456;SDS011;27197;51.752;5.220;2023-02-01T06:15:23;8.83;;;2.47;;
41456;SDS011;27197;51.752;5.220;2023-02-01T06:17:53;8.68;;;2.47;;
41456;SDS011;27197;51.752;5.220;2023-02-01T06:20:25;8.50;;;2.30;;
41456;SDS011;27197;51.752;5.220;2023-02-01T06:22:54;8.40;;;2.35;;
41456;SDS011;27197;51.752;5.220;2023-02-01T06:25:23;11.45;;;2.25;;
41456;SDS011;27197;51.752;5.220;2023-02-01T06:27:53;12.28;;;2.42;;
41456;SDS011;27197;51.752;5.220;2023-02-01T06:30:22;10.43;;;2.67;;
41456;SDS011;27197;51.752;5.220;2023-02-01T06:32:53;6.67;;;2.25;;
41456;SDS011;27197;51.752;5.220;2023-02-01T06:35:22;9.35;;;2.20;;
41456;SDS011;27197;51.752;5.220;2023-02-01T06:37:51;9.45;;;2.62;;
41456;SDS011;27197;51.752;5.220;2023-02-01T06:40:23;7.40;;;1.80;;
41456;SDS011;27197;51.752;5.220;2023-02-01T06:42:52;8.55;;;2.45;;
41456;SDS011;27197;51.752;5.220;2023-02-01T06:45:25;8.93;;;2.55;;
41456;SDS011;27197;51.752;5.220;2023-02-01T06:47:53;7.83;;;2.00;;
41456;SDS011;27197;51.752;5.220;2023-02-01T06:50:22;9.70;;;2.42;;
41456;SDS011;27197;51.752;5.220;2023-02-01T06:52:49;6.90;;;1.95;;
41456;SDS011;27197;51.752;5.220;2023-02-01T06:55:21;8.55;;;2.12;;
41456;SDS011;27197;51.752;5.220;2023-02-01T06:57:58;8.13;;;2.05;;
41456;SDS011;27197;51.752;5.220;2023-02-01T07:00:26;16.70;;;3.08;;
41456;SDS011;27197;51.752;5.220;2023-02-01T07:02:59;7.72;;;2.55;;
41456;SDS011;27197;51.752;5.220;2023-02-01T07:05:26;8.00;;;2.47;;
41456;SDS011;27197;51.752;5.220;2023-02-01T07:07:55;7.53;;;2.17;;
41456;SDS011;27197;51.752;5.220;2023-02-01T07:10:27;10.98;;;2.55;;
41456;SDS011;27197;51.752;5.220;2023-02-01T07:12:57;7.92;;;2.65;;
41456;SDS011;27197;51.752;5.220;2023-02-01T07:17:57;11.40;;;2.43;;
41456;SDS011;27197;51.752;5.220;2023-02-01T07:20:27;10.13;;;2.65;;
41456;SDS011;27197;51.752;5.220;2023-02-01T07:23:00;10.80;;;2.75;;
41456;SDS011;27197;51.752;5.220;2023-02-01T07:25:30;9.75;;;2.33;;
41456;SDS011;27197;51.752;5.220;2023-02-01T07:28:02;14.25;;;2.75;;
41456;SDS011;27197;51.752;5.220;2023-02-01T07:30:32;7.60;;;2.17;;
41456;SDS011;27197;51.752;5.220;2023-02-01T07:33:02;11.12;;;2.75;;
41456;SDS011;27197;51.752;5.220;2023-02-01T07:35:30;10.18;;;1.85;;
41456;SDS011;27197;51.752;5.220;2023-02-01T07:38:02;11.88;;;2.67;;
41456;SDS011;27197;51.752;5.220;2023-02-01T07:40:32;9.35;;;2.27;;
41456;SDS011;27197;51.752;5.220;2023-02-01T07:43:04;9.98;;;2.75;;
41456;SDS011;27197;51.752;5.220;2023-02-01T07:45:34;11.43;;;2.37;;
41456;SDS011;27197;51.752;5.220;2023-02-01T07:48:05;10.60;;;2.15;;
41456;SDS011;27197;51.752;5.220;2023-02-01T07:50:35;10.18;;;3.02;;
41456;SDS011;27197;51.752;5.220;2023-02-01T07:53:05;10.82;;;2.95;;
41456;SDS011;27197;51.752;5.220;2023-02-01T07:55:37;10.23;;;2.70;;
41456;SDS011;27197;51.752;5.220;2023-02-01T07:58:06;9.03;;;2.60;;
41456;SDS011;27197;51.752;5.220;2023-02-01T08:03:22;14.07;;;2.97;;
41456;SDS011;27197;51.752;5.220;2023-02-01T08:05:55;13.50;;;2.43;;
41456;SDS011;27197;51.752;5.220;2023-02-01T08:08:24;12.67;;;3.03;;
41456;SDS011;27197;51.752;5.220;2023-02-01T08:10:57;12.17;;;2.50;;
41456;SDS011;27197;51.752;5.220;2023-02-01T08:13:23;7.17;;;2.10;;
41456;SDS011;27197;51.752;5.220;2023-02-01T08:16:04;10.60;;;2.83;;
41456;SDS011;27197;51.752;5.220;2023-02-01T08:18:25;8.65;;;2.08;;
41456;SDS011;27197;51.752;5.220;2023-02-01T08:21:01;8.38;;;2.00;;
41456;SDS011;27197;51.752;5.220;2023-02-01T08:23:31;7.12;;;2.80;;
41456;SDS011;27197;51.752;5.220;2023-02-01T08:26:05;9.13;;;2.15;;
41456;SDS011;27197;51.752;5.220;2023-02-01T08:28:35;7.70;;;2.35;;
41456;SDS011;27197;51.752;5.220;2023-02-01T08:31:09;11.60;;;3.30;;
41456;SDS011;27197;51.752;5.220;2023-02-01T08:33:38;5.00;;;2.22;;
41456;SDS011;27197;51.752;5.220;2023-02-01T08:36:09;10.80;;;2.12;;
41456;SDS011;27197;51.752;5.220;2023-02-01T08:38:40;6.95;;;2.05;;
41456;SDS011;27197;51.752;5.220;2023-02-01T08:41:16;7.05;;;2.20;;
41456;SDS011;27197;51.752;5.220;2023-02-01T08:43:42;10.15;;;3.10;;
41456;SDS011;27197;51.752;5.220;2023-02-01T08:46:10;13.93;;;2.58;;
41456;SDS011;27197;51.752;5.220;2023-02-01T08:48:39;12.37;;;2.87;;
41456;SDS011;27197;51.752;5.220;2023-02-01T08:53:38;15.35;;;3.27;;
41456;SDS011;27197;51.752;5.220;2023-02-01T08:56:08;13.53;;;2.58;;
41456;SDS011;27197;51.752;5.220;2023-02-01T08:58:41;9.65;;;2.20;;
41456;SDS011;27197;51.752;5.220;2023-02-01T09:01:10;8.15;;;2.50;;
41456;SDS011;27197;51.752;5.220;2023-02-01T09:03:39;9.78;;;2.47;;
41456;SDS011;27197;51.752;5.220;2023-02-01T09:06:11;10.93;;;2.58;;
41456;SDS011;27197;51.752;5.220;2023-02-01T09:08:40;13.08;;;3.02;;
41456;SDS011;27197;51.752;5.220;2023-02-01T09:11:14;6.40;;;1.90;;
41456;SDS011;27197;51.752;5.220;2023-02-01T09:13:43;12.10;;;2.90;;
41456;SDS011;27197;51.752;5.220;2023-02-01T09:16:17;10.32;;;2.67;;
41456;SDS011;27197;51.752;5.220;2023-02-01T09:18:46;7.45;;;2.00;;
41456;SDS011;27197;51.752;5.220;2023-02-01T09:21:19;10.10;;;2.15;;
41456;SDS011;27197;51.752;5.220;2023-02-01T09:23:50;8.03;;;2.40;;
41456;SDS011;27197;51.752;5.220;2023-02-01T09:26:21;9.68;;;2.17;;
41456;SDS011;27197;51.752;5.220;2023-02-01T09:28:51;11.05;;;2.02;;
41456;SDS011;27197;51.752;5.220;2023-02-01T09:31:23;8.93;;;2.77;;
41456;SDS011;27197;51.752;5.220;2023-02-01T09:33:51;9.53;;;2.60;;
41456;SDS011;27197;51.752;5.220;2023-02-01T09:36:20;8.50;;;2.47;;
41456;SDS011;27197;51.752;5.220;2023-02-01T09:38:52;7.53;;;2.35;;
41456;SDS011;27197;51.752;5.220;2023-02-01T09:44:01;9.63;;;2.37;;
41456;SDS011;27197;51.752;5.220;2023-02-01T09:46:29;8.48;;;2.20;;
41456;SDS011;27197;51.752;5.220;2023-02-01T09:49:00;9.45;;;1.95;;
41456;SDS011;27197;51.752;5.220;2023-02-01T09:51:39;10.15;;;3.02;;
41456;SDS011;27197;51.752;5.220;2023-02-01T09:54:09;8.85;;;2.22;;
41456;SDS011;27197;51.752;5.220;2023-02-01T09:56:43;11.05;;;2.65;;
41456;SDS011;27197;51.752;5.220;2023-02-01T09:59:29;7.60;;;2.30;;
41456;SDS011;27197;51.752;5.220;2023-02-01T10:02:00;5.53;;;2.00;;
41456;SDS011;27197;51.752;5.220;2023-02-01T10:04:34;6.22;;;2.00;;
41456;SDS011;27197;51.752;5.220;2023-02-01T10:07:13;7.53;;;2.17;;
41456;SDS011;27197;51.752;5.220;2023-02-01T10:09:50;9.00;;;2.23;;
41456;SDS011;27197;51.752;5.220;2023-02-01T10:12:25;12.40;;;2.60;;
41456;SDS011;27197;51.752;5.220;2023-02-01T10:20:15;9.40;;;2.70;;
41456;SDS011;27197;51.752;5.220;2023-02-01T10:22:48;7.72;;;1.80;;
41456;SDS011;27197;51.752;5.220;2023-02-01T10:25:32;8.03;;;2.05;;
41456;SDS011;27197;51.752;5.220;2023-02-01T10:28:00;9.88;;;2.60;;
41456;SDS011;27197;51.752;5.220;2023-02-01T10:30:40;13.68;;;2.47;;
41456;SDS011;27197;51.752;5.220;2023-02-01T10:33:16;10.85;;;2.35;;
41456;SDS011;27197;51.752;5.220;2023-02-01T10:35:51;8.95;;;2.25;;
41456;SDS011;27197;51.752;5.220;2023-02-01T10:38:23;11.78;;;2.65;;
41456;SDS011;27197;51.752;5.220;2023-02-01T10:40:51;7.60;;;2.90;;
41456;SDS011;27197;51.752;5.220;2023-02-01T10:43:23;9.50;;;2.42;;
41456;SDS011;27197;51.752;5.220;2023-02-01T10:45:51;9.25;;;2.35;;
41456;SDS011;27197;51.752;5.220;2023-02-01T10:48:26;9.80;;;2.60;;
41456;SDS011;27197;51.752;5.220;2023-02-01T10:50:59;8.50;;;2.27;;
41456;SDS011;27197;51.752;5.220;2023-02-01T10:56:11;13.45;;;3.52;;
41456;SDS011;27197;51.752;5.220;2023-02-01T10:58:43;15.85;;;3.08;;
41456;SDS011;27197;51.752;5.220;2023-02-01T11:01:23;7.97;;;2.60;;
41456;SDS011;27197;51.752;5.220;2023-02-01T11:04:01;16.20;;;3.60;;
41456;SDS011;27197;51.752;5.220;2023-02-01T11:06:30;10.72;;;2.50;;
41456;SDS011;27197;51.752;5.220;2023-02-01T11:09:09;5.62;;;2.05;;
41456;SDS011;27197;51.752;5.220;2023-02-01T11:11:52;10.35;;;2.67;;
41456;SDS011;27197;51.752;5.220;2023-02-01T11:14:12;9.30;;;2.33;;
41456;SDS011;27197;51.752;5.220;2023-02-01T11:16:37;9.43;;;2.35;;
41456;SDS011;27197;51.752;5.220;2023-02-01T11:19:05;7.62;;;2.92;;
41456;SDS011;27197;51.752;5.220;2023-02-01T11:21:36;8.78;;;2.27;;
41456;SDS011;27197;51.752;5.220;2023-02-01T11:24:11;9.88;;;2.87;;
41456;SDS011;27197;51.752;5.220;2023-02-01T11:26:42;8.58;;;2.20;;
41456;SDS011;27197;51.752;5.220;2023-02-01T11:29:13;7.10;;;2.22;;
41456;SDS011;27197;51.752;5.220;2023-02-01T11:31:44;10.93;;;2.92;;
41456;SDS011;27197;51.752;5.220;2023-02-01T11:34:17;8.95;;;2.17;;
41456;SDS011;27197;51.752;5.220;2023-02-01T11:36:48;10.78;;;2.95;;
41456;SDS011;27197;51.752;5.220;2023-02-01T11:39:28;8.68;;;2.87;;
41456;SDS011;27197;51.752;5.220;2023-02-01T11:42:14;9.25;;;2.42;;
41456;SDS011;27197;51.752;5.220;2023-02-01T11:44:43;11.05;;;3.25;;
41456;SDS011;27197;51.752;5.220;2023-02-01T11:47:59;9.58;;;3.35;;
41456;SDS011;27197;51.752;5.220;2023-02-01T11:49:43;8.05;;;2.90;;
41456;SDS011;27197;51.752;5.220;2023-02-01T11:52:18;10.05;;;4.37;;
41456;SDS011;27197;51.752;5.220;2023-02-01T12:02:49;9.43;;;5.22;;
41456;SDS011;27197;51.752;5.220;2023-02-01T12:06:16;10.80;;;6.10;;
41456;SDS011;27197;51.752;5.220;2023-02-01T12:10:28;14.38;;;6.08;;
41456;SDS011;27197;51.752;5.220;2023-02-01T12:13:13;14.38;;;7.33;;
41456;SDS011;27197;51.752;5.220;2023-02-01T12:18:33;11.48;;;7.55;;
41456;SDS011;27197;51.752;5.220;2023-02-01T12:23:54;17.12;;;9.03;;
41456;SDS011;27197;51.752;5.220;2023-02-01T12:34:40;17.35;;;9.45;;
41456;SDS011;27197;51.752;5.220;2023-02-01T12:37:18;14.95;;;9.05;;
41456;SDS011;27197;51.752;5.220;2023-02-01T12:39:57;18.02;;;9.68;;
41456;SDS011;27197;51.752;5.220;2023-02-01T12:42:28;13.05;;;6.60;;
41456;SDS011;27197;51.752;5.220;2023-02-01T12:47:40;12.88;;;8.45;;
41456;SDS011;27197;51.752;5.220;2023-02-01T12:50:16;11.83;;;4.33;;
41456;SDS011;27197;51.752;5.220;2023-02-01T12:52:52;13.65;;;7.20;;
41456;SDS011;27197;51.752;5.220;2023-02-01T12:55:34;13.28;;;8.18;;
41456;SDS011;27197;51.752;5.220;2023-02-01T12:58:46;18.25;;;8.10;;
41456;SDS011;27197;51.752;5.220;2023-02-01T13:00:32;18.12;;;8.28;;
41456;SDS011;27197;51.752;5.220;2023-02-01T13:05:50;13.88;;;6.72;;
41456;SDS011;27197;51.752;5.220;2023-02-01T13:08:36;16.05;;;9.28;;
41456;SDS011;27197;51.752;5.220;2023-02-01T13:10:59;16.80;;;9.00;;
41456;SDS011;27197;51.752;5.220;2023-02-01T13:13:31;16.60;;;9.58;;
41456;SDS011;27197;51.752;5.220;2023-02-01T13:16:07;16.15;;;7.67;;
41456;SDS011;27197;51.752;5.220;2023-02-01T13:18:36;12.18;;;7.20;;
41456;SDS011;27197;51.752;5.220;2023-02-01T13:21:12;14.15;;;8.53;;
41456;SDS011;27197;51.752;5.220;2023-02-01T13:23:38;35.78;;;12.00;;
41456;SDS011;27197;51.752;5.220;2023-02-01T13:26:09;13.22;;;8.05;;
41456;SDS011;27197;51.752;5.220;2023-02-01T13:29:00;14.58;;;9.10;;
41456;SDS011;27197;51.752;5.220;2023-02-01T13:31:41;12.73;;;5.40;;
41456;SDS011;27197;51.752;5.220;2023-02-01T13:36:55;14.87;;;7.55;;
41456;SDS011;27197;51.752;5.220;2023-02-01T13:39:41;16.10;;;7.03;;
41456;SDS011;27197;51.752;5.220;2023-02-01T13:42:19;16.20;;;8.15;;
41456;SDS011;27197;51.752;5.220;2023-02-01T13:44:55;15.80;;;7.22;;
41456;SDS011;27197;51.752;5.220;2023-02-01T13:47:23;13.10;;;7.10;;
41456;SDS011;27197;51.752;5.220;2023-02-01T13:49:51;11.70;;;7.37;;
41456;SDS011;27197;51.752;5.220;2023-02-01T13:52:27;11.25;;;6.47;;
41456;SDS011;27197;51.752;5.220;2023-02-01T13:55:02;14.80;;;5.30;;
41456;SDS011;27197;51.752;5.220;2023-02-01T13:57:38;12.68;;;6.50;;
41456;SDS011;27197;51.752;5.220;2023-02-01T14:00:29;11.25;;;5.80;;
41456;SDS011;27197;51.752;5.220;2023-02-01T14:02:36;14.03;;;6.90;;
41456;SDS011;27197;51.752;5.220;2023-02-01T14:05:11;8.93;;;5.55;;
41456;SDS011;27197;51.752;5.220;2023-02-01T14:11:00;13.38;;;5.33;;
41456;SDS011;27197;51.752;5.220;2023-02-01T14:13:11;10.50;;;5.78;;
41456;SDS011;27197;51.752;5.220;2023-02-01T14:15:36;14.28;;;6.22;;
41456;SDS011;27197;51.752;5.220;2023-02-01T14:20:57;11.20;;;4.75;;
41456;SDS011;27197;51.752;5.220;2023-02-01T14:23:24;11.48;;;4.90;;
41456;SDS011;27197;51.752;5.220;2023-02-01T14:26:01;12.70;;;5.25;;
41456;SDS011;27197;51.752;5.220;2023-02-01T14:28:29;9.55;;;3.72;;
41456;SDS011;27197;51.752;5.220;2023-02-01T14:30:58;13.25;;;3.85;;
41456;SDS011;27197;51.752;5.220;2023-02-01T14:36:01;11.25;;;4.28;;
41456;SDS011;27197;51.752;5.220;2023-02-01T14:38:34;10.15;;;3.70;;
41456;SDS011;27197;51.752;5.220;2023-02-01T14:41:15;10.25;;;3.87;;
41456;SDS011;27197;51.752;5.220;2023-02-01T14:43:50;7.33;;;2.67;;
41456;SDS011;27197;51.752;5.220;2023-02-01T14:46:19;9.83;;;3.77;;
41456;SDS011;27197;51.752;5.220;2023-02-01T14:48:52;7.53;;;3.00;;
41456;SDS011;27197;51.752;5.220;2023-02-01T14:51:20;9.58;;;3.10;;
41456;SDS011;27197;51.752;5.220;2023-02-01T14:53:54;11.50;;;3.15;;
41456;SDS011;27197;51.752;5.220;2023-02-01T14:56:22;10.88;;;2.98;;
41456;SDS011;27197;51.752;5.220;2023-02-01T14:58:56;10.95;;;2.95;;
41456;SDS011;27197;51.752;5.220;2023-02-01T15:01:29;11.03;;;3.10;;
41456;SDS011;27197;51.752;5.220;2023-02-01T15:04:12;7.97;;;2.83;;
41456;SDS011;27197;51.752;5.220;2023-02-01T15:06:42;9.70;;;2.45;;
41456;SDS011;27197;51.752;5.220;2023-02-01T15:09:16;7.75;;;3.27;;
41456;SDS011;27197;51.752;5.220;2023-02-01T15:14:26;10.35;;;3.22;;
41456;SDS011;27197;51.752;5.220;2023-02-01T15:16:54;10.05;;;2.98;;
41456;SDS011;27197;51.752;5.220;2023-02-01T15:21:53;8.18;;;2.92;;
41456;SDS011;27197;51.752;5.220;2023-02-01T15:24:27;8.78;;;2.55;;
41456;SDS011;27197;51.752;5.220;2023-02-01T15:27:01;9.53;;;2.70;;
41456;SDS011;27197;51.752;5.220;2023-02-01T15:29:27;11.97;;;2.92;;
41456;SDS011;27197;51.752;5.220;2023-02-01T15:31:58;9.33;;;2.60;;
41456;SDS011;27197;51.752;5.220;2023-02-01T15:36:56;9.45;;;2.58;;
41456;SDS011;27197;51.752;5.220;2023-02-01T15:39:29;9.05;;;2.52;;
41456;SDS011;27197;51.752;5.220;2023-02-01T15:42:01;6.12;;;2.30;;
41456;SDS011;27197;51.752;5.220;2023-02-01T15:44:36;9.83;;;2.15;;
41456;SDS011;27197;51.752;5.220;2023-02-01T15:47:06;8.78;;;2.65;;
41456;SDS011;27197;51.752;5.220;2023-02-01T15:49:39;10.68;;;2.87;;
41456;SDS011;27197;51.752;5.220;2023-02-01T15:52:20;6.92;;;2.85;;
41456;SDS011;27197;51.752;5.220;2023-02-01T15:54:51;9.43;;;2.60;;
41456;SDS011;27197;51.752;5.220;2023-02-01T15:57:20;10.15;;;2.62;;
41456;SDS011;27197;51.752;5.220;2023-02-01T15:59:52;9.20;;;2.25;;
41456;SDS011;27197;51.752;5.220;2023-02-01T16:04:59;13.95;;;3.60;;
41456;SDS011;27197;51.752;5.220;2023-02-01T16:07:30;8.68;;;2.35;;
41456;SDS011;27197;51.752;5.220;2023-02-01T16:09:59;7.25;;;2.30;;
41456;SDS011;27197;51.752;5.220;2023-02-01T16:14:58;6.87;;;2.20;;
41456;SDS011;27197;51.752;5.220;2023-02-01T16:17:27;6.85;;;2.17;;
41456;SDS011;27197;51.752;5.220;2023-02-01T16:19:58;9.23;;;2.22;;
41456;SDS011;27197;51.752;5.220;2023-02-01T16:22:28;12.58;;;2.90;;
41456;SDS011;27197;51.752;5.220;2023-02-01T16:25:00;11.18;;;2.77;;
41456;SDS011;27197;51.752;5.220;2023-02-01T16:27:29;10.98;;;3.00;;
41456;SDS011;27197;51.752;5.220;2023-02-01T16:29:59;10.40;;;2.70;;
41456;SDS011;27197;51.752;5.220;2023-02-01T16:32:29;16.95;;;3.60;;
41456;SDS011;27197;51.752;5.220;2023-02-01T16:34:57;10.60;;;2.27;;
41456;SDS011;27197;51.752;5.220;2023-02-01T16:37:30;11.22;;;2.70;;
41456;SDS011;27197;51.752;5.220;2023-02-01T16:39:58;9.53;;;3.15;;
41456;SDS011;27197;51.752;5.220;2023-02-01T16:42:31;9.83;;;2.90;;
41456;SDS011;27197;51.752;5.220;2023-02-01T16:45:01;12.63;;;2.98;;